sensor_id;sensor_type;location;lat;lon;timestamp;temperature;humidity
212;DHT22;16228;48.800;9.002;2023-08-24T00:01:24;18.50;96.90
212;DHT22;16228;48.800;9.002;2023-08-24T00:03:51;18.50;96.90
212;DHT22;16228;48.800;9.002;2023-08-24T00:06:19;18.40;96.90
212;DHT22;16228;48.800;9.002;2023-08-24T00:08:45;18.40;96.90
212;DHT22;16228;48.800;9.002;2023-08-24T00:11:13;18.40;96.90
212;DHT22;16228;48.800;9.002;2023-08-24T00:13:42;18.40;96.90
212;DHT22;16228;48.800;9.002;2023-08-24T00:16:14;18.30;96.90
212;DHT22;16228;48.800;9.002;2023-08-24T00:18:41;18.30;96.90
212;DHT22;16228;48.800;9.002;2023-08-24T00:21:08;18.20;96.90
212;DHT22;16228;48.800;9.002;2023-08-24T00:23:35;18.30;96.90
212;DHT22;16228;48.800;9.002;2023-08-24T00:26:02;18.20;96.90
212;DHT22;16228;48.800;9.002;2023-08-24T00:28:29;18.20;96.90
212;DHT22;16228;48.800;9.002;2023-08-24T00:30:57;18.10;96.90
212;DHT22;16228;48.800;9.002;2023-08-24T00:33:24;18.20;96.90
212;DHT22;16228;48.800;9.002;2023-08-24T00:35:51;18.20;96.90
212;DHT22;16228;48.800;9.002;2023-08-24T00:38:18;18.10;96.90
212;DHT22;16228;48.800;9.002;2023-08-24T00:40:45;18.10;96.90
212;DHT22;16228;48.800;9.002;2023-08-24T00:43:12;18.10;96.90
212;DHT22;16228;48.800;9.002;2023-08-24T00:45:40;18.10;96.90
212;DHT22;16228;48.800;9.002;2023-08-24T00:48:08;18.20;96.90
212;DHT22;16228;48.800;9.002;2023-08-24T00:50:35;18.20;96.90
212;DHT22;16228;48.800;9.002;2023-08-24T00:53:03;18.20;96.90
212;DHT22;16228;48.800;9.002;2023-08-24T00:55:30;18.20;96.90
212;DHT22;16228;48.800;9.002;2023-08-24T00:57:57;18.20;96.90
212;DHT22;16228;48.800;9.002;2023-08-24T01:00:25;18.10;96.90
212;DHT22;16228;48.800;9.002;2023-08-24T01:02:52;18.10;96.90
212;DHT22;16228;48.800;9.002;2023-08-24T01:05:20;18.00;96.90
212;DHT22;16228;48.800;9.002;2023-08-24T01:07:48;18.00;96.90
212;DHT22;16228;48.800;9.002;2023-08-24T01:10:15;18.00;96.90
212;DHT22;16228;48.800;9.002;2023-08-24T01:12:59;18.00;96.90
212;DHT22;16228;48.800;9.002;2023-08-24T01:15:32;18.00;96.90
212;DHT22;16228;48.800;9.002;2023-08-24T01:18:06;18.00;96.90
212;DHT22;16228;48.800;9.002;2023-08-24T01:20:37;17.90;96.90
212;DHT22;16228;48.800;9.002;2023-08-24T01:23:14;17.90;96.90
212;DHT22;16228;48.800;9.002;2023-08-24T01:25:51;18.00;96.90
212;DHT22;16228;48.800;9.002;2023-08-24T01:28:20;18.00;96.90
212;DHT22;16228;48.800;9.002;2023-08-24T01:30:48;17.90;96.90
212;DHT22;16228;48.800;9.002;2023-08-24T01:33:15;17.90;96.90
212;DHT22;16228;48.800;9.002;2023-08-24T01:35:42;17.90;96.90
212;DHT22;16228;48.800;9.002;2023-08-24T01:38:09;17.80;96.90
212;DHT22;16228;48.800;9.002;2023-08-24T01:40:48;17.80;96.90
212;DHT22;16228;48.800;9.002;2023-08-24T01:43:20;17.70;96.90
212;DHT22;16228;48.800;9.002;2023-08-24T01:45:48;17.70;96.90
212;DHT22;16228;48.800;9.002;2023-08-24T01:48:16;17.70;96.90
212;DHT22;16228;48.800;9.002;2023-08-24T01:50:44;17.70;96.90
212;DHT22;16228;48.800;9.002;2023-08-24T01:53:12;17.70;96.90
212;DHT22;16228;48.800;9.002;2023-08-24T01:55:39;17.70;96.90
212;DHT22;16228;48.800;9.002;2023-08-24T01:58:08;17.60;96.90
212;DHT22;16228;48.800;9.002;2023-08-24T02:00:37;17.60;96.90
212;DHT22;16228;48.800;9.002;2023-08-24T02:03:04;17.60;96.90
212;DHT22;16228;48.800;9.002;2023-08-24T02:05:31;17.50;96.90
212;DHT22;16228;48.800;9.002;2023-08-24T02:07:58;17.50;96.90
212;DHT22;16228;48.800;9.002;2023-08-24T02:10:25;17.50;96.90
212;DHT22;16228;48.800;9.002;2023-08-24T02:12:52;17.50;96.90
212;DHT22;16228;48.800;9.002;2023-08-24T02:15:19;17.50;96.90
212;DHT22;16228;48.800;9.002;2023-08-24T02:17:48;17.40;96.90
212;DHT22;16228;48.800;9.002;2023-08-24T02:20:15;17.50;96.90
212;DHT22;16228;48.800;9.002;2023-08-24T02:22:42;17.50;96.90
212;DHT22;16228;48.800;9.002;2023-08-24T02:25:09;17.40;96.90
212;DHT22;16228;48.800;9.002;2023-08-24T02:27:36;17.40;96.90
212;DHT22;16228;48.800;9.002;2023-08-24T02:30:04;17.40;96.90
212;DHT22;16228;48.800;9.002;2023-08-24T02:32:31;17.40;96.90
212;DHT22;16228;48.800;9.002;2023-08-24T02:35:00;17.40;96.90
212;DHT22;16228;48.800;9.002;2023-08-24T02:37:27;17.50;96.90
212;DHT22;16228;48.800;9.002;2023-08-24T02:39:54;17.60;96.90
212;DHT22;16228;48.800;9.002;2023-08-24T02:42:21;17.60;96.90
212;DHT22;16228;48.800;9.002;2023-08-24T02:44:48;17.70;96.90
212;DHT22;16228;48.800;9.002;2023-08-24T02:47:14;17.60;96.90
212;DHT22;16228;48.800;9.002;2023-08-24T02:49:42;17.70;96.90
212;DHT22;16228;48.800;9.002;2023-08-24T02:52:10;17.70;96.90
212;DHT22;16228;48.800;9.002;2023-08-24T02:54:37;17.70;96.90
212;DHT22;16228;48.800;9.002;2023-08-24T02:57:04;17.70;96.90
212;DHT22;16228;48.800;9.002;2023-08-24T02:59:31;17.70;96.90
212;DHT22;16228;48.800;9.002;2023-08-24T03:01:58;17.70;96.90
212;DHT22;16228;48.800;9.002;2023-08-24T03:04:26;17.70;96.90
212;DHT22;16228;48.800;9.002;2023-08-24T03:06:53;17.70;96.90
212;DHT22;16228;48.800;9.002;2023-08-24T03:09:22;17.60;96.90
212;DHT22;16228;48.800;9.002;2023-08-24T03:11:48;17.60;96.90
212;DHT22;16228;48.800;9.002;2023-08-24T03:14:15;17.60;96.90
212;DHT22;16228;48.800;9.002;2023-08-24T03:16:44;17.60;96.90
212;DHT22;16228;48.800;9.002;2023-08-24T03:19:11;17.60;96.90
212;DHT22;16228;48.800;9.002;2023-08-24T03:21:40;17.50;96.90
212;DHT22;16228;48.800;9.002;2023-08-24T03:24:07;17.50;96.90
212;DHT22;16228;48.800;9.002;2023-08-24T03:26:35;17.50;96.90
212;DHT22;16228;48.800;9.002;2023-08-24T03:29:02;17.50;96.90
212;DHT22;16228;48.800;9.002;2023-08-24T03:31:29;17.50;96.90
212;DHT22;16228;48.800;9.002;2023-08-24T03:33:56;17.50;96.90
212;DHT22;16228;48.800;9.002;2023-08-24T03:36:23;17.40;96.90
212;DHT22;16228;48.800;9.002;2023-08-24T03:38:50;17.50;96.90
212;DHT22;16228;48.800;9.002;2023-08-24T03:41:17;17.50;96.90
212;DHT22;16228;48.800;9.002;2023-08-24T03:43:45;17.50;96.90
212;DHT22;16228;48.800;9.002;2023-08-24T03:46:12;17.50;96.90
212;DHT22;16228;48.800;9.002;2023-08-24T03:48:39;17.60;96.90
212;DHT22;16228;48.800;9.002;2023-08-24T03:51:06;17.70;96.90
212;DHT22;16228;48.800;9.002;2023-08-24T03:53:33;17.70;96.90
212;DHT22;16228;48.800;9.002;2023-08-24T03:56:00;17.70;96.90
212;DHT22;16228;48.800;9.002;2023-08-24T03:58:27;17.70;96.90
212;DHT22;16228;48.800;9.002;2023-08-24T04:00:55;17.80;96.90
212;DHT22;16228;48.800;9.002;2023-08-24T04:03:22;17.80;96.90
212;DHT22;16228;48.800;9.002;2023-08-24T04:05:49;17.80;96.90
212;DHT22;16228;48.800;9.002;2023-08-24T04:08:16;17.90;96.90
212;DHT22;16228;48.800;9.002;2023-08-24T04:10:43;18.00;96.90
212;DHT22;16228;48.800;9.002;2023-08-24T04:13:10;18.00;96.90
212;DHT22;16228;48.800;9.002;2023-08-24T04:15:37;18.00;96.90
212;DHT22;16228;48.800;9.002;2023-08-24T04:18:06;18.10;96.90
212;DHT22;16228;48.800;9.002;2023-08-24T04:20:33;18.20;96.90
212;DHT22;16228;48.800;9.002;2023-08-24T04:23:00;18.20;96.90
212;DHT22;16228;48.800;9.002;2023-08-24T04:25:26;18.20;96.90
212;DHT22;16228;48.800;9.002;2023-08-24T04:27:55;18.30;96.90
212;DHT22;16228;48.800;9.002;2023-08-24T04:30:22;18.30;96.90
212;DHT22;16228;48.800;9.002;2023-08-24T04:32:48;18.30;96.90
212;DHT22;16228;48.800;9.002;2023-08-24T04:35:18;18.30;96.90
212;DHT22;16228;48.800;9.002;2023-08-24T04:37:45;18.30;96.90
212;DHT22;16228;48.800;9.002;2023-08-24T04:40:12;18.20;96.90
212;DHT22;16228;48.800;9.002;2023-08-24T04:42:39;18.20;96.90
212;DHT22;16228;48.800;9.002;2023-08-24T04:45:07;18.20;96.90
212;DHT22;16228;48.800;9.002;2023-08-24T04:47:35;18.10;96.90
212;DHT22;16228;48.800;9.002;2023-08-24T04:50:02;18.00;96.90
212;DHT22;16228;48.800;9.002;2023-08-24T04:52:30;18.00;96.90
212;DHT22;16228;48.800;9.002;2023-08-24T04:54:57;18.00;96.90
212;DHT22;16228;48.800;9.002;2023-08-24T04:57:24;18.00;96.90
212;DHT22;16228;48.800;9.002;2023-08-24T04:59:51;18.10;96.90
212;DHT22;16228;48.800;9.002;2023-08-24T05:02:18;18.10;96.90
212;DHT22;16228;48.800;9.002;2023-08-24T05:04:45;18.20;96.90
212;DHT22;16228;48.800;9.002;2023-08-24T05:07:14;18.30;96.90
212;DHT22;16228;48.800;9.002;2023-08-24T05:09:42;18.40;96.90
212;DHT22;16228;48.800;9.002;2023-08-24T05:12:09;18.40;96.90
212;DHT22;16228;48.800;9.002;2023-08-24T05:14:36;18.40;96.90
212;DHT22;16228;48.800;9.002;2023-08-24T05:17:03;18.40;96.90
212;DHT22;16228;48.800;9.002;2023-08-24T05:19:30;18.50;96.90
212;DHT22;16228;48.800;9.002;2023-08-24T05:21:57;18.60;96.90
212;DHT22;16228;48.800;9.002;2023-08-24T05:24:24;18.70;96.90
212;DHT22;16228;48.800;9.002;2023-08-24T05:26:52;18.80;96.90
212;DHT22;16228;48.800;9.002;2023-08-24T05:29:19;18.90;96.90
212;DHT22;16228;48.800;9.002;2023-08-24T05:31:46;19.00;96.90
212;DHT22;16228;48.800;9.002;2023-08-24T05:34:13;19.00;96.90
212;DHT22;16228;48.800;9.002;2023-08-24T05:36:40;19.10;96.90
212;DHT22;16228;48.800;9.002;2023-08-24T05:39:07;19.10;96.90
212;DHT22;16228;48.800;9.002;2023-08-24T05:41:34;19.20;96.90
212;DHT22;16228;48.800;9.002;2023-08-24T05:44:04;19.20;96.90
212;DHT22;16228;48.800;9.002;2023-08-24T05:46:31;19.30;96.90
212;DHT22;16228;48.800;9.002;2023-08-24T05:48:59;19.50;96.90
212;DHT22;16228;48.800;9.002;2023-08-24T05:51:26;19.60;96.90
212;DHT22;16228;48.800;9.002;2023-08-24T05:53:53;19.80;96.90
212;DHT22;16228;48.800;9.002;2023-08-24T05:56:21;19.90;96.90
212;DHT22;16228;48.800;9.002;2023-08-24T05:58:48;20.10;96.90
212;DHT22;16228;48.800;9.002;2023-08-24T06:01:17;20.30;96.90
212;DHT22;16228;48.800;9.002;2023-08-24T06:03:44;20.50;96.90
212;DHT22;16228;48.800;9.002;2023-08-24T06:06:11;20.60;96.90
212;DHT22;16228;48.800;9.002;2023-08-24T06:08:38;20.80;96.90
212;DHT22;16228;48.800;9.002;2023-08-24T06:11:04;21.00;96.90
212;DHT22;16228;48.800;9.002;2023-08-24T06:13:32;21.10;96.90
212;DHT22;16228;48.800;9.002;2023-08-24T06:15:59;21.20;96.90
212;DHT22;16228;48.800;9.002;2023-08-24T06:18:28;21.20;96.90
212;DHT22;16228;48.800;9.002;2023-08-24T06:20:55;21.30;96.90
212;DHT22;16228;48.800;9.002;2023-08-24T06:23:22;21.40;96.90
212;DHT22;16228;48.800;9.002;2023-08-24T06:25:49;21.50;96.90
212;DHT22;16228;48.800;9.002;2023-08-24T06:28:16;21.50;96.90
212;DHT22;16228;48.800;9.002;2023-08-24T06:30:43;21.50;96.90
212;DHT22;16228;48.800;9.002;2023-08-24T06:33:11;21.60;96.90
212;DHT22;16228;48.800;9.002;2023-08-24T06:35:40;21.60;96.90
212;DHT22;16228;48.800;9.002;2023-08-24T06:38:07;21.70;96.90
212;DHT22;16228;48.800;9.002;2023-08-24T06:40:34;21.70;96.90
212;DHT22;16228;48.800;9.002;2023-08-24T06:43:01;21.80;96.90
212;DHT22;16228;48.800;9.002;2023-08-24T06:45:28;21.80;96.90
212;DHT22;16228;48.800;9.002;2023-08-24T06:47:55;21.80;96.90
212;DHT22;16228;48.800;9.002;2023-08-24T06:50:22;21.80;96.90
212;DHT22;16228;48.800;9.002;2023-08-24T06:52:50;21.90;96.90
212;DHT22;16228;48.800;9.002;2023-08-24T06:55:17;21.90;96.90
212;DHT22;16228;48.800;9.002;2023-08-24T06:57:48;22.00;96.90
212;DHT22;16228;48.800;9.002;2023-08-24T07:00:16;22.10;96.90
212;DHT22;16228;48.800;9.002;2023-08-24T07:02:45;22.30;96.90
212;DHT22;16228;48.800;9.002;2023-08-24T07:05:12;22.50;96.90
212;DHT22;16228;48.800;9.002;2023-08-24T07:07:40;22.80;96.90
212;DHT22;16228;48.800;9.002;2023-08-24T07:10:10;23.10;96.90
212;DHT22;16228;48.800;9.002;2023-08-24T07:12:38;23.40;96.90
212;DHT22;16228;48.800;9.002;2023-08-24T07:15:06;23.60;96.90
212;DHT22;16228;48.800;9.002;2023-08-24T07:17:34;23.80;96.90
212;DHT22;16228;48.800;9.002;2023-08-24T07:20:01;23.90;96.90
212;DHT22;16228;48.800;9.002;2023-08-24T07:22:30;24.10;96.90
212;DHT22;16228;48.800;9.002;2023-08-24T07:24:58;24.30;96.90
212;DHT22;16228;48.800;9.002;2023-08-24T07:27:26;24.70;96.90
212;DHT22;16228;48.800;9.002;2023-08-24T07:29:54;25.00;96.90
212;DHT22;16228;48.800;9.002;2023-08-24T07:32:21;25.30;96.90
212;DHT22;16228;48.800;9.002;2023-08-24T07:34:49;26.40;96.90
212;DHT22;16228;48.800;9.002;2023-08-24T07:37:16;27.70;96.90
212;DHT22;16228;48.800;9.002;2023-08-24T07:39:43;29.20;96.90
212;DHT22;16228;48.800;9.002;2023-08-24T07:42:10;30.20;93.80
212;DHT22;16228;48.800;9.002;2023-08-24T07:44:38;31.00;89.80
212;DHT22;16228;48.800;9.002;2023-08-24T07:47:05;31.70;88.80
212;DHT22;16228;48.800;9.002;2023-08-24T07:49:32;32.30;86.00
212;DHT22;16228;48.800;9.002;2023-08-24T07:51:59;32.90;83.70
212;DHT22;16228;48.800;9.002;2023-08-24T07:54:26;33.50;81.90
212;DHT22;16228;48.800;9.002;2023-08-24T07:56:53;34.00;81.80
212;DHT22;16228;48.800;9.002;2023-08-24T07:59:20;34.30;81.90
212;DHT22;16228;48.800;9.002;2023-08-24T08:01:48;34.80;80.30
212;DHT22;16228;48.800;9.002;2023-08-24T08:04:15;35.20;77.30
212;DHT22;16228;48.800;9.002;2023-08-24T08:06:42;35.40;76.50
212;DHT22;16228;48.800;9.002;2023-08-24T08:09:09;35.60;76.80
212;DHT22;16228;48.800;9.002;2023-08-24T08:11:37;36.10;78.20
212;DHT22;16228;48.800;9.002;2023-08-24T08:14:04;36.30;74.10
212;DHT22;16228;48.800;9.002;2023-08-24T08:16:31;36.40;74.00
212;DHT22;16228;48.800;9.002;2023-08-24T08:18:59;36.60;73.80
212;DHT22;16228;48.800;9.002;2023-08-24T08:21:26;36.80;72.60
212;DHT22;16228;48.800;9.002;2023-08-24T08:23:53;36.50;74.30
212;DHT22;16228;48.800;9.002;2023-08-24T08:26:20;36.80;72.80
212;DHT22;16228;48.800;9.002;2023-08-24T08:28:47;36.90;72.70
212;DHT22;16228;48.800;9.002;2023-08-24T08:31:14;37.30;71.10
212;DHT22;16228;48.800;9.002;2023-08-24T08:33:41;37.60;71.70
212;DHT22;16228;48.800;9.002;2023-08-24T08:36:09;37.80;71.40
212;DHT22;16228;48.800;9.002;2023-08-24T08:38:36;37.90;71.20
212;DHT22;16228;48.800;9.002;2023-08-24T08:41:04;37.90;70.30
212;DHT22;16228;48.800;9.002;2023-08-24T08:43:31;38.20;69.30
212;DHT22;16228;48.800;9.002;2023-08-24T08:45:59;38.30;71.30
212;DHT22;16228;48.800;9.002;2023-08-24T08:48:28;38.50;68.50
212;DHT22;16228;48.800;9.002;2023-08-24T08:50:57;38.50;69.50
212;DHT22;16228;48.800;9.002;2023-08-24T08:53:28;38.70;68.80
212;DHT22;16228;48.800;9.002;2023-08-24T08:55:55;38.70;70.80
212;DHT22;16228;48.800;9.002;2023-08-24T08:58:29;38.80;69.70
212;DHT22;16228;48.800;9.002;2023-08-24T09:00:58;39.00;68.50
212;DHT22;16228;48.800;9.002;2023-08-24T09:03:26;39.30;68.70
212;DHT22;16228;48.800;9.002;2023-08-24T09:05:57;39.50;68.80
212;DHT22;16228;48.800;9.002;2023-08-24T09:08:25;39.80;66.60
212;DHT22;16228;48.800;9.002;2023-08-24T09:10:53;39.80;68.20
212;DHT22;16228;48.800;9.002;2023-08-24T09:13:21;39.90;67.00
212;DHT22;16228;48.800;9.002;2023-08-24T09:15:51;40.00;68.00
212;DHT22;16228;48.800;9.002;2023-08-24T09:18:18;40.40;67.60
212;DHT22;16228;48.800;9.002;2023-08-24T09:20:46;40.70;66.70
212;DHT22;16228;48.800;9.002;2023-08-24T09:23:19;41.00;68.00
212;DHT22;16228;48.800;9.002;2023-08-24T09:25:47;41.30;63.60
212;DHT22;16228;48.800;9.002;2023-08-24T09:28:22;41.20;64.50
212;DHT22;16228;48.800;9.002;2023-08-24T09:30:52;41.00;64.40
212;DHT22;16228;48.800;9.002;2023-08-24T09:33:20;40.80;64.10
212;DHT22;16228;48.800;9.002;2023-08-24T09:35:52;40.90;66.10
212;DHT22;16228;48.800;9.002;2023-08-24T09:38:21;41.10;65.10
212;DHT22;16228;48.800;9.002;2023-08-24T09:40:50;41.20;65.80
212;DHT22;16228;48.800;9.002;2023-08-24T09:43:19;41.50;65.00
212;DHT22;16228;48.800;9.002;2023-08-24T09:45:51;41.80;62.30
212;DHT22;16228;48.800;9.002;2023-08-24T09:48:19;41.80;62.80
212;DHT22;16228;48.800;9.002;2023-08-24T09:50:48;41.70;63.00
212;DHT22;16228;48.800;9.002;2023-08-24T09:53:17;41.90;64.20
212;DHT22;16228;48.800;9.002;2023-08-24T09:55:49;42.10;65.30
212;DHT22;16228;48.800;9.002;2023-08-24T09:58:22;42.50;62.50
212;DHT22;16228;48.800;9.002;2023-08-24T10:00:49;42.50;62.10
212;DHT22;16228;48.800;9.002;2023-08-24T10:03:18;42.70;61.30
212;DHT22;16228;48.800;9.002;2023-08-24T10:05:51;42.90;61.90
212;DHT22;16228;48.800;9.002;2023-08-24T10:08:21;43.10;63.40
212;DHT22;16228;48.800;9.002;2023-08-24T10:10:54;43.10;59.90
212;DHT22;16228;48.800;9.002;2023-08-24T10:13:29;43.00;62.30
212;DHT22;16228;48.800;9.002;2023-08-24T10:15:59;42.90;63.70
212;DHT22;16228;48.800;9.002;2023-08-24T10:18:27;43.40;62.20
212;DHT22;16228;48.800;9.002;2023-08-24T10:20:54;43.50;60.90
212;DHT22;16228;48.800;9.002;2023-08-24T10:23:23;43.50;60.20
212;DHT22;16228;48.800;9.002;2023-08-24T10:25:51;43.70;61.50
212;DHT22;16228;48.800;9.002;2023-08-24T10:28:20;43.60;62.00
212;DHT22;16228;48.800;9.002;2023-08-24T10:30:48;43.80;60.20
212;DHT22;16228;48.800;9.002;2023-08-24T10:33:16;44.30;60.30
212;DHT22;16228;48.800;9.002;2023-08-24T10:35:44;44.50;58.90
212;DHT22;16228;48.800;9.002;2023-08-24T10:38:23;44.20;59.90
212;DHT22;16228;48.800;9.002;2023-08-24T10:40:51;44.20;60.60
212;DHT22;16228;48.800;9.002;2023-08-24T10:43:19;44.20;60.70
212;DHT22;16228;48.800;9.002;2023-08-24T10:45:58;44.50;58.10
212;DHT22;16228;48.800;9.002;2023-08-24T10:48:27;44.70;60.90
212;DHT22;16228;48.800;9.002;2023-08-24T10:51:16;44.70;58.90
212;DHT22;16228;48.800;9.002;2023-08-24T10:53:46;44.80;57.80
212;DHT22;16228;48.800;9.002;2023-08-24T10:56:14;44.60;60.90
212;DHT22;16228;48.800;9.002;2023-08-24T10:58:42;44.50;61.50
212;DHT22;16228;48.800;9.002;2023-08-24T11:01:22;43.90;60.00
212;DHT22;16228;48.800;9.002;2023-08-24T11:03:50;43.90;62.10
212;DHT22;16228;48.800;9.002;2023-08-24T11:06:21;44.00;62.70
212;DHT22;16228;48.800;9.002;2023-08-24T11:08:49;44.10;58.70
212;DHT22;16228;48.800;9.002;2023-08-24T11:11:19;44.20;57.40
212;DHT22;16228;48.800;9.002;2023-08-24T11:14:13;44.70;59.10
212;DHT22;16228;48.800;9.002;2023-08-24T11:16:43;44.60;57.40
212;DHT22;16228;48.800;9.002;2023-08-24T11:19:11;44.20;59.20
212;DHT22;16228;48.800;9.002;2023-08-24T11:21:39;44.50;60.00
212;DHT22;16228;48.800;9.002;2023-08-24T11:24:06;44.50;59.90
212;DHT22;16228;48.800;9.002;2023-08-24T11:26:34;44.60;60.00
212;DHT22;16228;48.800;9.002;2023-08-24T11:29:05;44.80;59.40
212;DHT22;16228;48.800;9.002;2023-08-24T11:31:33;45.30;57.60
212;DHT22;16228;48.800;9.002;2023-08-24T11:34:02;45.10;60.20
212;DHT22;16228;48.800;9.002;2023-08-24T11:36:30;45.60;59.20
212;DHT22;16228;48.800;9.002;2023-08-24T11:38:58;45.70;58.20
212;DHT22;16228;48.800;9.002;2023-08-24T11:41:26;45.60;57.20
212;DHT22;16228;48.800;9.002;2023-08-24T11:44:00;45.30;57.20
212;DHT22;16228;48.800;9.002;2023-08-24T11:46:29;45.30;59.60
212;DHT22;16228;48.800;9.002;2023-08-24T11:48:57;45.00;60.20
212;DHT22;16228;48.800;9.002;2023-08-24T11:51:26;45.30;59.80
212;DHT22;16228;48.800;9.002;2023-08-24T11:53:53;44.70;58.20
212;DHT22;16228;48.800;9.002;2023-08-24T11:56:20;44.40;61.20
212;DHT22;16228;48.800;9.002;2023-08-24T11:58:50;43.90;61.30
212;DHT22;16228;48.800;9.002;2023-08-24T12:01:18;43.90;62.70
212;DHT22;16228;48.800;9.002;2023-08-24T12:03:45;44.30;61.20
212;DHT22;16228;48.800;9.002;2023-08-24T12:06:13;44.10;59.30
212;DHT22;16228;48.800;9.002;2023-08-24T12:08:44;43.20;59.10
212;DHT22;16228;48.800;9.002;2023-08-24T12:11:16;42.40;61.00
212;DHT22;16228;48.800;9.002;2023-08-24T12:13:44;41.80;62.60
212;DHT22;16228;48.800;9.002;2023-08-24T12:16:13;41.40;62.50
212;DHT22;16228;48.800;9.002;2023-08-24T12:18:52;40.90;64.40
212;DHT22;16228;48.800;9.002;2023-08-24T12:21:19;40.80;64.80
212;DHT22;16228;48.800;9.002;2023-08-24T12:23:59;40.80;65.80
212;DHT22;16228;48.800;9.002;2023-08-24T12:26:27;41.30;66.90
212;DHT22;16228;48.800;9.002;2023-08-24T12:28:59;42.10;64.50
212;DHT22;16228;48.800;9.002;2023-08-24T12:31:29;42.30;65.50
212;DHT22;16228;48.800;9.002;2023-08-24T12:34:01;42.30;67.20
212;DHT22;16228;48.800;9.002;2023-08-24T12:36:29;42.10;65.80
212;DHT22;16228;48.800;9.002;2023-08-24T12:38:58;41.70;65.20
212;DHT22;16228;48.800;9.002;2023-08-24T12:41:25;41.50;65.70
212;DHT22;16228;48.800;9.002;2023-08-24T12:43:51;41.50;64.80
212;DHT22;16228;48.800;9.002;2023-08-24T12:46:18;41.50;66.70
212;DHT22;16228;48.800;9.002;2023-08-24T12:48:46;42.10;64.50
212;DHT22;16228;48.800;9.002;2023-08-24T12:51:13;42.60;63.10
212;DHT22;16228;48.800;9.002;2023-08-24T12:53:40;43.20;64.10
212;DHT22;16228;48.800;9.002;2023-08-24T12:56:08;43.20;61.40
212;DHT22;16228;48.800;9.002;2023-08-24T12:58:35;43.20;60.80
212;DHT22;16228;48.800;9.002;2023-08-24T13:01:04;43.30;60.60
212;DHT22;16228;48.800;9.002;2023-08-24T13:03:31;42.70;60.80
212;DHT22;16228;48.800;9.002;2023-08-24T13:05:57;42.40;62.50
212;DHT22;16228;48.800;9.002;2023-08-24T13:08:24;42.10;63.00
212;DHT22;16228;48.800;9.002;2023-08-24T13:10:52;41.50;64.70
212;DHT22;16228;48.800;9.002;2023-08-24T13:13:20;40.80;65.30
212;DHT22;16228;48.800;9.002;2023-08-24T13:15:49;40.50;68.80
212;DHT22;16228;48.800;9.002;2023-08-24T13:18:17;40.50;69.60
212;DHT22;16228;48.800;9.002;2023-08-24T13:20:44;40.60;70.00
212;DHT22;16228;48.800;9.002;2023-08-24T13:23:11;40.90;67.00
212;DHT22;16228;48.800;9.002;2023-08-24T13:25:38;40.70;67.90
212;DHT22;16228;48.800;9.002;2023-08-24T13:28:05;40.60;64.30
212;DHT22;16228;48.800;9.002;2023-08-24T13:30:33;40.50;66.30
212;DHT22;16228;48.800;9.002;2023-08-24T13:33:00;40.20;65.10
212;DHT22;16228;48.800;9.002;2023-08-24T13:35:27;40.10;67.00
212;DHT22;16228;48.800;9.002;2023-08-24T13:37:54;40.00;68.80
212;DHT22;16228;48.800;9.002;2023-08-24T13:40:21;39.80;66.70
212;DHT22;16228;48.800;9.002;2023-08-24T13:42:48;39.50;64.50
212;DHT22;16228;48.800;9.002;2023-08-24T13:45:16;39.00;67.00
212;DHT22;16228;48.800;9.002;2023-08-24T13:47:46;38.90;67.00
212;DHT22;16228;48.800;9.002;2023-08-24T13:50:13;39.00;66.00
212;DHT22;16228;48.800;9.002;2023-08-24T13:52:40;38.50;66.10
212;DHT22;16228;48.800;9.002;2023-08-24T13:55:07;38.20;67.40
212;DHT22;16228;48.800;9.002;2023-08-24T13:57:34;37.90;68.50
212;DHT22;16228;48.800;9.002;2023-08-24T14:00:02;37.60;67.10
212;DHT22;16228;48.800;9.002;2023-08-24T14:02:30;37.50;68.70
212;DHT22;16228;48.800;9.002;2023-08-24T14:04:58;37.30;71.10
212;DHT22;16228;48.800;9.002;2023-08-24T14:07:25;36.90;66.70
212;DHT22;16228;48.800;9.002;2023-08-24T14:09:52;36.40;67.80
212;DHT22;16228;48.800;9.002;2023-08-24T14:12:19;36.00;68.70
212;DHT22;16228;48.800;9.002;2023-08-24T14:14:46;35.60;69.20
212;DHT22;16228;48.800;9.002;2023-08-24T14:17:13;35.30;69.60
212;DHT22;16228;48.800;9.002;2023-08-24T14:19:40;35.10;68.00
212;DHT22;16228;48.800;9.002;2023-08-24T14:22:08;34.90;70.20
212;DHT22;16228;48.800;9.002;2023-08-24T14:24:35;34.80;71.10
212;DHT22;16228;48.800;9.002;2023-08-24T14:27:02;34.60;71.90
212;DHT22;16228;48.800;9.002;2023-08-24T14:29:29;34.50;75.00
212;DHT22;16228;48.800;9.002;2023-08-24T14:31:56;34.30;72.30
212;DHT22;16228;48.800;9.002;2023-08-24T14:34:23;34.10;73.80
212;DHT22;16228;48.800;9.002;2023-08-24T14:36:50;34.00;77.10
212;DHT22;16228;48.800;9.002;2023-08-24T14:39:19;33.80;80.40
212;DHT22;16228;48.800;9.002;2023-08-24T14:41:46;33.60;82.00
212;DHT22;16228;48.800;9.002;2023-08-24T14:44:13;33.40;81.50
212;DHT22;16228;48.800;9.002;2023-08-24T14:46:40;33.00;81.20
212;DHT22;16228;48.800;9.002;2023-08-24T14:49:07;32.60;81.30
212;DHT22;16228;48.800;9.002;2023-08-24T14:51:34;31.90;87.20
212;DHT22;16228;48.800;9.002;2023-08-24T14:54:01;30.70;96.90
212;DHT22;16228;48.800;9.002;2023-08-24T14:56:30;29.00;96.90
212;DHT22;16228;48.800;9.002;2023-08-24T14:58:57;27.40;96.90
212;DHT22;16228;48.800;9.002;2023-08-24T15:01:24;26.20;96.90
212;DHT22;16228;48.800;9.002;2023-08-24T15:03:51;25.50;96.90
212;DHT22;16228;48.800;9.002;2023-08-24T15:06:18;25.00;96.90
212;DHT22;16228;48.800;9.002;2023-08-24T15:08:45;24.50;96.90
212;DHT22;16228;48.800;9.002;2023-08-24T15:11:14;24.20;96.90
212;DHT22;16228;48.800;9.002;2023-08-24T15:13:43;24.00;96.90
212;DHT22;16228;48.800;9.002;2023-08-24T15:16:10;23.80;96.90
212;DHT22;16228;48.800;9.002;2023-08-24T15:18:37;23.60;96.90
212;DHT22;16228;48.800;9.002;2023-08-24T15:21:04;23.40;96.90
212;DHT22;16228;48.800;9.002;2023-08-24T15:23:31;23.40;96.90
212;DHT22;16228;48.800;9.002;2023-08-24T15:26:00;23.40;96.90
212;DHT22;16228;48.800;9.002;2023-08-24T15:28:35;23.40;96.90
212;DHT22;16228;48.800;9.002;2023-08-24T15:31:03;23.40;96.90
212;DHT22;16228;48.800;9.002;2023-08-24T15:33:30;23.50;96.90
212;DHT22;16228;48.800;9.002;2023-08-24T15:35:58;23.50;96.90
212;DHT22;16228;48.800;9.002;2023-08-24T15:38:24;23.60;96.90
212;DHT22;16228;48.800;9.002;2023-08-24T15:40:52;23.60;96.90
212;DHT22;16228;48.800;9.002;2023-08-24T15:43:20;23.70;96.90
212;DHT22;16228;48.800;9.002;2023-08-24T15:45:49;23.60;96.90
212;DHT22;16228;48.800;9.002;2023-08-24T15:48:18;23.50;96.90
212;DHT22;16228;48.800;9.002;2023-08-24T15:50:45;23.40;96.90
212;DHT22;16228;48.800;9.002;2023-08-24T15:53:12;23.40;96.90
212;DHT22;16228;48.800;9.002;2023-08-24T15:55:39;23.30;96.90
212;DHT22;16228;48.800;9.002;2023-08-24T15:58:06;23.30;96.90
212;DHT22;16228;48.800;9.002;2023-08-24T16:00:33;23.40;96.90
212;DHT22;16228;48.800;9.002;2023-08-24T16:03:00;23.30;96.90
212;DHT22;16228;48.800;9.002;2023-08-24T16:05:29;23.30;96.90
212;DHT22;16228;48.800;9.002;2023-08-24T16:07:58;23.20;96.90